sensor_id;sensor_type;location;lat;lon;timestamp;P1;durP1;ratioP1;P2;durP2;ratioP2
8254;SDS011;4167;48.162;11.542;2023-04-01T00:00:24;338.77;;;62.80;;
8254;SDS011;4167;48.162;11.542;2023-04-01T00:02:51;296.70;;;59.53;;
8254;SDS011;4167;48.162;11.542;2023-04-01T00:05:19;380.37;;;64.00;;
8254;SDS011;4167;48.162;11.542;2023-04-01T00:07:46;421.10;;;67.10;;
8254;SDS011;4167;48.162;11.542;2023-04-01T00:10:13;400.57;;;65.87;;
8254;SDS011;4167;48.162;11.542;2023-04-01T00:12:39;321.23;;;61.00;;
8254;SDS011;4167;48.162;11.542;2023-04-01T00:15:07;461.83;;;68.40;;
8254;SDS011;4167;48.162;11.542;2023-04-01T00:17:35;328.50;;;61.63;;
8254;SDS011;4167;48.162;11.542;2023-04-01T00:20:02;385.80;;;64.53;;
8254;SDS011;4167;48.162;11.542;2023-04-01T00:22:31;350.67;;;62.37;;
8254;SDS011;4167;48.162;11.542;2023-04-01T00:24:58;339.50;;;61.93;;
8254;SDS011;4167;48.162;11.542;2023-04-01T00:27:25;409.30;;;66.43;;
8254;SDS011;4167;48.162;11.542;2023-04-01T00:29:52;297.07;;;60.40;;
8254;SDS011;4167;48.162;11.542;2023-04-01T00:32:18;346.90;;;62.30;;
8254;SDS011;4167;48.162;11.542;2023-04-01T00:34:45;306.07;;;59.63;;
8254;SDS011;4167;48.162;11.542;2023-04-01T00:37:12;326.87;;;61.17;;
8254;SDS011;4167;48.162;11.542;2023-04-01T00:39:40;391.93;;;65.17;;
8254;SDS011;4167;48.162;11.542;2023-04-01T00:42:06;409.53;;;65.93;;
8254;SDS011;4167;48.162;11.542;2023-04-01T00:44:36;437.60;;;67.27;;
8254;SDS011;4167;48.162;11.542;2023-04-01T00:47:03;347.27;;;62.43;;
8254;SDS011;4167;48.162;11.542;2023-04-01T00:49:30;319.20;;;60.70;;
8254;SDS011;4167;48.162;11.542;2023-04-01T00:52:00;319.37;;;60.90;;
8254;SDS011;4167;48.162;11.542;2023-04-01T00:54:28;368.80;;;63.83;;
8254;SDS011;4167;48.162;11.542;2023-04-01T00:56:58;344.03;;;62.13;;
8254;SDS011;4167;48.162;11.542;2023-04-01T00:59:26;289.97;;;59.33;;
8254;SDS011;4167;48.162;11.542;2023-04-01T01:01:54;318.63;;;61.37;;
8254;SDS011;4167;48.162;11.542;2023-04-01T01:04:22;342.70;;;62.13;;
8254;SDS011;4167;48.162;11.542;2023-04-01T01:06:50;285.23;;;58.93;;
8254;SDS011;4167;48.162;11.542;2023-04-01T01:09:25;388.47;;;64.83;;
8254;SDS011;4167;48.162;11.542;2023-04-01T01:12:00;358.83;;;63.00;;
8254;SDS011;4167;48.162;11.542;2023-04-01T01:14:34;409.67;;;65.17;;
8254;SDS011;4167;48.162;11.542;2023-04-01T01:17:07;404.53;;;65.60;;
8254;SDS011;4167;48.162;11.542;2023-04-01T01:22:36;310.53;;;60.17;;
8254;SDS011;4167;48.162;11.542;2023-04-01T01:25:15;388.63;;;64.43;;
8254;SDS011;4167;48.162;11.542;2023-04-01T01:27:47;353.07;;;62.83;;
8254;SDS011;4167;48.162;11.542;2023-04-01T01:30:26;439.23;;;68.27;;
8254;SDS011;4167;48.162;11.542;2023-04-01T01:33:22;371.87;;;63.47;;
8254;SDS011;4167;48.162;11.542;2023-04-01T01:35:53;338.90;;;62.80;;
8254;SDS011;4167;48.162;11.542;2023-04-01T01:38:22;340.17;;;62.73;;
8254;SDS011;4167;48.162;11.542;2023-04-01T01:40:50;334.90;;;62.37;;
8254;SDS011;4167;48.162;11.542;2023-04-01T01:43:19;366.27;;;64.57;;
8254;SDS011;4167;48.162;11.542;2023-04-01T01:45:48;310.63;;;61.27;;
8254;SDS011;4167;48.162;11.542;2023-04-01T01:48:17;357.17;;;63.57;;
8254;SDS011;4167;48.162;11.542;2023-04-01T01:50:44;319.07;;;61.50;;
8254;SDS011;4167;48.162;11.542;2023-04-01T01:53:12;304.07;;;60.30;;
8254;SDS011;4167;48.162;11.542;2023-04-01T01:55:40;363.33;;;64.10;;
8254;SDS011;4167;48.162;11.542;2023-04-01T01:58:09;377.77;;;64.40;;
8254;SDS011;4167;48.162;11.542;2023-04-01T02:00:36;337.93;;;62.53;;
8254;SDS011;4167;48.162;11.542;2023-04-01T02:03:03;347.57;;;62.67;;
8254;SDS011;4167;48.162;11.542;2023-04-01T02:05:31;324.17;;;61.00;;
8254;SDS011;4167;48.162;11.542;2023-04-01T02:07:59;300.63;;;60.70;;
8254;SDS011;4167;48.162;11.542;2023-04-01T02:10:30;290.50;;;59.40;;
8254;SDS011;4167;48.162;11.542;2023-04-01T02:12:59;363.20;;;63.70;;
8254;SDS011;4167;48.162;11.542;2023-04-01T02:15:28;320.77;;;60.93;;
8254;SDS011;4167;48.162;11.542;2023-04-01T02:17:58;325.87;;;61.43;;
8254;SDS011;4167;48.162;11.542;2023-04-01T02:20:24;335.90;;;62.17;;
8254;SDS011;4167;48.162;11.542;2023-04-01T02:22:54;295.00;;;59.47;;
8254;SDS011;4167;48.162;11.542;2023-04-01T02:25:22;348.23;;;62.37;;
8254;SDS011;4167;48.162;11.542;2023-04-01T02:27:51;349.90;;;62.43;;
8254;SDS011;4167;48.162;11.542;2023-04-01T02:30:18;375.60;;;64.37;;
8254;SDS011;4167;48.162;11.542;2023-04-01T02:32:45;317.37;;;60.53;;
8254;SDS011;4167;48.162;11.542;2023-04-01T02:35:13;364.60;;;64.37;;
8254;SDS011;4167;48.162;11.542;2023-04-01T02:37:41;302.17;;;60.23;;
8254;SDS011;4167;48.162;11.542;2023-04-01T02:40:10;375.70;;;65.17;;
8254;SDS011;4167;48.162;11.542;2023-04-01T02:42:38;431.63;;;67.33;;
8254;SDS011;4167;48.162;11.542;2023-04-01T02:45:07;348.17;;;62.87;;
8254;SDS011;4167;48.162;11.542;2023-04-01T02:47:34;332.37;;;62.17;;
8254;SDS011;4167;48.162;11.542;2023-04-01T02:50:00;437.33;;;68.00;;
8254;SDS011;4167;48.162;11.542;2023-04-01T02:52:27;298.67;;;60.63;;
8254;SDS011;4167;48.162;11.542;2023-04-01T02:54:55;293.30;;;59.37;;
8254;SDS011;4167;48.162;11.542;2023-04-01T02:57:31;309.87;;;60.93;;
8254;SDS011;4167;48.162;11.542;2023-04-01T02:59:57;293.07;;;59.87;;
8254;SDS011;4167;48.162;11.542;2023-04-01T03:02:25;387.17;;;64.67;;
8254;SDS011;4167;48.162;11.542;2023-04-01T03:04:52;345.17;;;62.60;;
8254;SDS011;4167;48.162;11.542;2023-04-01T03:07:18;336.67;;;62.23;;
8254;SDS011;4167;48.162;11.542;2023-04-01T03:09:45;265.90;;;58.50;;
8254;SDS011;4167;48.162;11.542;2023-04-01T03:12:11;324.80;;;61.57;;
8254;SDS011;4167;48.162;11.542;2023-04-01T03:14:37;311.33;;;61.30;;
8254;SDS011;4167;48.162;11.542;2023-04-01T03:17:04;355.90;;;63.97;;
8254;SDS011;4167;48.162;11.542;2023-04-01T03:19:33;285.70;;;59.67;;
8254;SDS011;4167;48.162;11.542;2023-04-01T03:21:59;366.63;;;64.20;;
8254;SDS011;4167;48.162;11.542;2023-04-01T03:24:25;537.90;;;73.70;;
8254;SDS011;4167;48.162;11.542;2023-04-01T03:26:52;336.27;;;61.57;;
8254;SDS011;4167;48.162;11.542;2023-04-01T03:29:18;388.33;;;64.83;;
8254;SDS011;4167;48.162;11.542;2023-04-01T03:31:45;339.03;;;62.07;;
8254;SDS011;4167;48.162;11.542;2023-04-01T03:34:11;411.87;;;66.77;;
8254;SDS011;4167;48.162;11.542;2023-04-01T03:36:39;345.03;;;62.60;;
8254;SDS011;4167;48.162;11.542;2023-04-01T03:39:06;334.47;;;62.17;;
8254;SDS011;4167;48.162;11.542;2023-04-01T03:41:32;314.93;;;60.93;;
8254;SDS011;4167;48.162;11.542;2023-04-01T03:43:59;348.83;;;62.70;;
8254;SDS011;4167;48.162;11.542;2023-04-01T03:46:25;307.83;;;60.60;;
8254;SDS011;4167;48.162;11.542;2023-04-01T03:48:52;377.90;;;64.73;;
8254;SDS011;4167;48.162;11.542;2023-04-01T03:51:18;352.33;;;63.47;;
8254;SDS011;4167;48.162;11.542;2023-04-01T03:53:46;284.00;;;59.70;;
8254;SDS011;4167;48.162;11.542;2023-04-01T03:56:13;321.47;;;61.50;;
8254;SDS011;4167;48.162;11.542;2023-04-01T03:58:39;288.57;;;59.60;;
8254;SDS011;4167;48.162;11.542;2023-04-01T04:01:12;297.93;;;60.30;;
8254;SDS011;4167;48.162;11.542;2023-04-01T04:03:40;411.07;;;66.73;;
8254;SDS011;4167;48.162;11.542;2023-04-01T04:06:09;370.17;;;64.17;;
8254;SDS011;4167;48.162;11.542;2023-04-01T04:08:37;318.63;;;62.30;;
8254;SDS011;4167;48.162;11.542;2023-04-01T04:11:05;320.87;;;61.67;;
8254;SDS011;4167;48.162;11.542;2023-04-01T04:13:32;379.87;;;65.43;;
8254;SDS011;4167;48.162;11.542;2023-04-01T04:15:58;314.70;;;61.20;;
8254;SDS011;4167;48.162;11.542;2023-04-01T04:18:25;331.83;;;62.70;;
8254;SDS011;4167;48.162;11.542;2023-04-01T04:20:51;326.43;;;61.53;;
8254;SDS011;4167;48.162;11.542;2023-04-01T04:23:18;410.50;;;66.17;;
8254;SDS011;4167;48.162;11.542;2023-04-01T04:25:52;320.10;;;61.17;;
8254;SDS011;4167;48.162;11.542;2023-04-01T04:28:21;326.33;;;62.00;;
8254;SDS011;4167;48.162;11.542;2023-04-01T04:30:47;310.37;;;60.80;;
8254;SDS011;4167;48.162;11.542;2023-04-01T04:33:14;341.80;;;63.27;;
8254;SDS011;4167;48.162;11.542;2023-04-01T04:35:40;460.53;;;70.00;;
8254;SDS011;4167;48.162;11.542;2023-04-01T04:38:07;350.17;;;62.90;;
8254;SDS011;4167;48.162;11.542;2023-04-01T04:40:35;394.83;;;66.20;;
8254;SDS011;4167;48.162;11.542;2023-04-01T04:43:02;335.20;;;62.03;;
8254;SDS011;4167;48.162;11.542;2023-04-01T04:45:30;356.43;;;63.73;;
8254;SDS011;4167;48.162;11.542;2023-04-01T04:47:56;359.33;;;64.00;;
8254;SDS011;4167;48.162;11.542;2023-04-01T04:50:23;395.87;;;66.23;;
8254;SDS011;4167;48.162;11.542;2023-04-01T04:52:50;362.33;;;64.53;;
8254;SDS011;4167;48.162;11.542;2023-04-01T04:55:17;355.93;;;63.37;;
8254;SDS011;4167;48.162;11.542;2023-04-01T04:57:43;332.37;;;62.03;;
8254;SDS011;4167;48.162;11.542;2023-04-01T05:00:10;446.30;;;69.27;;
8254;SDS011;4167;48.162;11.542;2023-04-01T05:02:38;357.23;;;64.20;;
8254;SDS011;4167;48.162;11.542;2023-04-01T05:05:05;360.83;;;64.00;;
8254;SDS011;4167;48.162;11.542;2023-04-01T05:07:32;361.23;;;64.40;;
8254;SDS011;4167;48.162;11.542;2023-04-01T05:09:59;346.27;;;63.20;;
8254;SDS011;4167;48.162;11.542;2023-04-01T05:12:25;282.43;;;59.33;;
8254;SDS011;4167;48.162;11.542;2023-04-01T05:14:52;372.30;;;65.23;;
8254;SDS011;4167;48.162;11.542;2023-04-01T05:17:18;293.57;;;60.83;;
8254;SDS011;4167;48.162;11.542;2023-04-01T05:19:46;307.33;;;60.90;;
8254;SDS011;4167;48.162;11.542;2023-04-01T05:22:12;349.37;;;63.50;;
8254;SDS011;4167;48.162;11.542;2023-04-01T05:24:39;424.60;;;67.93;;
8254;SDS011;4167;48.162;11.542;2023-04-01T05:27:05;404.80;;;66.53;;
8254;SDS011;4167;48.162;11.542;2023-04-01T05:29:32;398.73;;;66.30;;
8254;SDS011;4167;48.162;11.542;2023-04-01T05:31:59;392.90;;;65.77;;
8254;SDS011;4167;48.162;11.542;2023-04-01T05:34:26;399.00;;;66.77;;
8254;SDS011;4167;48.162;11.542;2023-04-01T05:36:54;349.87;;;62.97;;
8254;SDS011;4167;48.162;11.542;2023-04-01T05:39:20;295.40;;;60.87;;
8254;SDS011;4167;48.162;11.542;2023-04-01T05:41:47;322.83;;;62.73;;
8254;SDS011;4167;48.162;11.542;2023-04-01T05:44:13;440.47;;;69.37;;
8254;SDS011;4167;48.162;11.542;2023-04-01T05:46:40;353.27;;;64.20;;
8254;SDS011;4167;48.162;11.542;2023-04-01T05:49:06;443.93;;;69.70;;
8254;SDS011;4167;48.162;11.542;2023-04-01T05:51:34;339.93;;;63.17;;
8254;SDS011;4167;48.162;11.542;2023-04-01T05:54:02;366.20;;;65.20;;
8254;SDS011;4167;48.162;11.542;2023-04-01T05:56:30;334.67;;;63.33;;
8254;SDS011;4167;48.162;11.542;2023-04-01T05:58:56;367.13;;;65.23;;
8254;SDS011;4167;48.162;11.542;2023-04-01T06:01:23;277.33;;;60.73;;
8254;SDS011;4167;48.162;11.542;2023-04-01T06:03:50;348.23;;;64.77;;
8254;SDS011;4167;48.162;11.542;2023-04-01T06:06:18;356.50;;;65.17;;
8254;SDS011;4167;48.162;11.542;2023-04-01T06:08:48;335.90;;;64.43;;
8254;SDS011;4167;48.162;11.542;2023-04-01T06:11:18;331.03;;;64.20;;
8254;SDS011;4167;48.162;11.542;2023-04-01T06:13:56;344.53;;;65.53;;
8254;SDS011;4167;48.162;11.542;2023-04-01T06:16:32;419.93;;;70.03;;
8254;SDS011;4167;48.162;11.542;2023-04-01T06:19:08;401.73;;;68.83;;
8254;SDS011;4167;48.162;11.542;2023-04-01T06:24:47;459.27;;;72.93;;
8254;SDS011;4167;48.162;11.542;2023-04-01T06:27:39;482.73;;;74.07;;
8254;SDS011;4167;48.162;11.542;2023-04-01T06:30:18;478.67;;;73.73;;
8254;SDS011;4167;48.162;11.542;2023-04-01T06:32:57;525.33;;;76.20;;
8254;SDS011;4167;48.162;11.542;2023-04-01T06:35:35;353.73;;;66.40;;
8254;SDS011;4167;48.162;11.542;2023-04-01T06:38:18;391.73;;;69.07;;
8254;SDS011;4167;48.162;11.542;2023-04-01T06:41:06;446.73;;;72.30;;
8254;SDS011;4167;48.162;11.542;2023-04-01T06:43:43;353.63;;;66.77;;
8254;SDS011;4167;48.162;11.542;2023-04-01T06:46:16;447.53;;;71.87;;
8254;SDS011;4167;48.162;11.542;2023-04-01T06:48:53;466.20;;;73.87;;
8254;SDS011;4167;48.162;11.542;2023-04-01T06:51:31;403.03;;;70.30;;
8254;SDS011;4167;48.162;11.542;2023-04-01T06:54:04;419.50;;;71.47;;
8254;SDS011;4167;48.162;11.542;2023-04-01T06:56:33;387.47;;;69.23;;
8254;SDS011;4167;48.162;11.542;2023-04-01T06:59:04;493.97;;;76.47;;
8254;SDS011;4167;48.162;11.542;2023-04-01T07:01:33;393.53;;;70.33;;
8254;SDS011;4167;48.162;11.542;2023-04-01T07:04:05;493.90;;;76.90;;
8254;SDS011;4167;48.162;11.542;2023-04-01T07:06:35;374.77;;;69.47;;
8254;SDS011;4167;48.162;11.542;2023-04-01T07:09:04;415.80;;;72.03;;
8254;SDS011;4167;48.162;11.542;2023-04-01T07:11:33;341.17;;;67.33;;
8254;SDS011;4167;48.162;11.542;2023-04-01T07:14:01;364.67;;;69.03;;
8254;SDS011;4167;48.162;11.542;2023-04-01T07:16:32;495.57;;;76.27;;
8254;SDS011;4167;48.162;11.542;2023-04-01T07:19:02;412.23;;;70.87;;
8254;SDS011;4167;48.162;11.542;2023-04-01T07:21:31;413.67;;;70.53;;
8254;SDS011;4167;48.162;11.542;2023-04-01T07:24:03;426.80;;;71.63;;
8254;SDS011;4167;48.162;11.542;2023-04-01T07:26:31;424.47;;;72.30;;
8254;SDS011;4167;48.162;11.542;2023-04-01T07:28:58;432.27;;;71.83;;
8254;SDS011;4167;48.162;11.542;2023-04-01T07:31:36;428.37;;;72.67;;
8254;SDS011;4167;48.162;11.542;2023-04-01T07:34:19;434.10;;;72.20;;
8254;SDS011;4167;48.162;11.542;2023-04-01T07:36:48;460.70;;;74.47;;
8254;SDS011;4167;48.162;11.542;2023-04-01T07:39:24;568.53;;;80.97;;
8254;SDS011;4167;48.162;11.542;2023-04-01T07:41:58;372.27;;;68.93;;
8254;SDS011;4167;48.162;11.542;2023-04-01T07:44:29;469.60;;;74.63;;
8254;SDS011;4167;48.162;11.542;2023-04-01T07:47:11;432.20;;;73.50;;
8254;SDS011;4167;48.162;11.542;2023-04-01T07:49:46;403.43;;;70.97;;
8254;SDS011;4167;48.162;11.542;2023-04-01T07:52:19;447.00;;;73.13;;
8254;SDS011;4167;48.162;11.542;2023-04-01T07:54:49;438.20;;;72.87;;
8254;SDS011;4167;48.162;11.542;2023-04-01T07:57:20;380.87;;;68.47;;
8254;SDS011;4167;48.162;11.542;2023-04-01T07:59:52;378.87;;;68.57;;
8254;SDS011;4167;48.162;11.542;2023-04-01T08:02:32;382.23;;;68.17;;
8254;SDS011;4167;48.162;11.542;2023-04-01T08:05:08;384.60;;;69.03;;
8254;SDS011;4167;48.162;11.542;2023-04-01T08:07:42;385.60;;;68.57;;
8254;SDS011;4167;48.162;11.542;2023-04-01T08:10:13;409.47;;;70.63;;
8254;SDS011;4167;48.162;11.542;2023-04-01T08:12:47;414.70;;;70.60;;
8254;SDS011;4167;48.162;11.542;2023-04-01T08:15:19;449.47;;;72.43;;
8254;SDS011;4167;48.162;11.542;2023-04-01T08:17:52;469.10;;;72.80;;
8254;SDS011;4167;48.162;11.542;2023-04-01T08:20:28;344.70;;;65.73;;
8254;SDS011;4167;48.162;11.542;2023-04-01T08:23:00;413.87;;;70.03;;
8254;SDS011;4167;48.162;11.542;2023-04-01T08:25:33;374.60;;;67.17;;
8254;SDS011;4167;48.162;11.542;2023-04-01T08:28:02;381.63;;;67.47;;
8254;SDS011;4167;48.162;11.542;2023-04-01T08:30:35;490.03;;;74.43;;
8254;SDS011;4167;48.162;11.542;2023-04-01T08:33:09;450.13;;;72.17;;
8254;SDS011;4167;48.162;11.542;2023-04-01T08:35:39;373.63;;;68.00;;
8254;SDS011;4167;48.162;11.542;2023-04-01T08:38:10;546.53;;;78.10;;
8254;SDS011;4167;48.162;11.542;2023-04-01T08:40:43;416.17;;;69.93;;
8254;SDS011;4167;48.162;11.542;2023-04-01T08:43:28;357.20;;;67.13;;
8254;SDS011;4167;48.162;11.542;2023-04-01T08:46:06;340.50;;;65.93;;
8254;SDS011;4167;48.162;11.542;2023-04-01T08:48:54;409.07;;;70.70;;
8254;SDS011;4167;48.162;11.542;2023-04-01T08:51:37;407.70;;;69.80;;
8254;SDS011;4167;48.162;11.542;2023-04-01T08:57:25;406.37;;;70.17;;
8254;SDS011;4167;48.162;11.542;2023-04-01T09:00:05;395.80;;;69.07;;
8254;SDS011;4167;48.162;11.542;2023-04-01T09:08:57;294.57;;;64.07;;
8254;SDS011;4167;48.162;11.542;2023-04-01T09:11:33;400.43;;;70.47;;
8254;SDS011;4167;48.162;11.542;2023-04-01T09:14:22;411.23;;;70.63;;
8254;SDS011;4167;48.162;11.542;2023-04-01T09:17:01;359.53;;;67.77;;
8254;SDS011;4167;48.162;11.542;2023-04-01T09:19:33;359.27;;;68.87;;
8254;SDS011;4167;48.162;11.542;2023-04-01T09:22:19;411.90;;;71.10;;
8254;SDS011;4167;48.162;11.542;2023-04-01T09:27:51;413.13;;;71.13;;
8254;SDS011;4167;48.162;11.542;2023-04-01T09:30:31;344.10;;;66.80;;
8254;SDS011;4167;48.162;11.542;2023-04-01T09:33:10;340.47;;;66.33;;
8254;SDS011;4167;48.162;11.542;2023-04-01T09:36:03;453.50;;;73.50;;
8254;SDS011;4167;48.162;11.542;2023-04-01T09:38:35;306.13;;;64.73;;
8254;SDS011;4167;48.162;11.542;2023-04-01T09:41:07;385.60;;;69.20;;
8254;SDS011;4167;48.162;11.542;2023-04-01T09:43:43;295.03;;;64.40;;
8254;SDS011;4167;48.162;11.542;2023-04-01T09:46:23;210.47;;;59.40;;
8254;SDS011;4167;48.162;11.542;2023-04-01T09:49:00;297.03;;;64.43;;
8254;SDS011;4167;48.162;11.542;2023-04-01T09:51:48;271.60;;;63.00;;
8254;SDS011;4167;48.162;11.542;2023-04-01T09:54:26;325.80;;;66.67;;
8254;SDS011;4167;48.162;11.542;2023-04-01T10:00:28;298.20;;;64.90;;
8254;SDS011;4167;48.162;11.542;2023-04-01T10:09:14;430.00;;;72.63;;
8254;SDS011;4167;48.162;11.542;2023-04-01T10:23:50;308.40;;;64.93;;
8254;SDS011;4167;48.162;11.542;2023-04-01T10:29:51;332.17;;;66.03;;
8254;SDS011;4167;48.162;11.542;2023-04-01T10:35:50;295.10;;;64.70;;
8254;SDS011;4167;48.162;11.542;2023-04-01T10:38:35;350.00;;;67.60;;
8254;SDS011;4167;48.162;11.542;2023-04-01T10:41:24;359.13;;;67.80;;
8254;SDS011;4167;48.162;11.542;2023-04-01T10:47:18;352.97;;;66.57;;
8254;SDS011;4167;48.162;11.542;2023-04-01T10:50:15;412.93;;;70.33;;
8254;SDS011;4167;48.162;11.542;2023-04-01T10:53:22;341.73;;;66.37;;
8254;SDS011;4167;48.162;11.542;2023-04-01T10:59:20;403.17;;;69.77;;
8254;SDS011;4167;48.162;11.542;2023-04-01T11:02:08;427.50;;;75.40;;
8254;SDS011;4167;48.162;11.542;2023-04-01T11:07:57;433.23;;;77.40;;
8254;SDS011;4167;48.162;11.542;2023-04-01T11:13:48;254.23;;;68.37;;
8254;SDS011;4167;48.162;11.542;2023-04-01T11:19:52;515.77;;;81.37;;
8254;SDS011;4167;48.162;11.542;2023-04-01T11:25:45;395.40;;;72.77;;
8254;SDS011;4167;48.162;11.542;2023-04-01T11:34:16;504.17;;;80.47;;
8254;SDS011;4167;48.162;11.542;2023-04-01T11:36:56;538.77;;;82.57;;
8254;SDS011;4167;48.162;11.542;2023-04-01T11:39:32;499.73;;;80.70;;
8254;SDS011;4167;48.162;11.542;2023-04-01T11:42:03;456.07;;;77.63;;
8254;SDS011;4167;48.162;11.542;2023-04-01T11:44:37;473.50;;;79.30;;
8254;SDS011;4167;48.162;11.542;2023-04-01T11:47:28;636.87;;;91.13;;
8254;SDS011;4167;48.162;11.542;2023-04-01T11:50:15;499.50;;;82.87;;
8254;SDS011;4167;48.162;11.542;2023-04-01T11:52:53;420.63;;;77.23;;
8254;SDS011;4167;48.162;11.542;2023-04-01T11:55:27;379.60;;;72.40;;
8254;SDS011;4167;48.162;11.542;2023-04-01T11:58:03;366.30;;;71.87;;
8254;SDS011;4167;48.162;11.542;2023-04-01T12:00:47;411.83;;;74.83;;
8254;SDS011;4167;48.162;11.542;2023-04-01T12:03:28;388.47;;;72.43;;
8254;SDS011;4167;48.162;11.542;2023-04-01T12:06:05;406.17;;;72.83;;
8254;SDS011;4167;48.162;11.542;2023-04-01T12:08:39;388.60;;;71.07;;
8254;SDS011;4167;48.162;11.542;2023-04-01T12:11:12;390.47;;;71.13;;
8254;SDS011;4167;48.162;11.542;2023-04-01T12:13:44;383.43;;;71.53;;
8254;SDS011;4167;48.162;11.542;2023-04-01T12:19:18;448.30;;;74.50;;
8254;SDS011;4167;48.162;11.542;2023-04-01T12:21:51;357.60;;;69.03;;
8254;SDS011;4167;48.162;11.542;2023-04-01T12:27:31;482.20;;;77.37;;
8254;SDS011;4167;48.162;11.542;2023-04-01T12:30:14;441.13;;;74.57;;
8254;SDS011;4167;48.162;11.542;2023-04-01T12:33:00;454.70;;;75.83;;
8254;SDS011;4167;48.162;11.542;2023-04-01T12:35:32;350.60;;;68.07;;
8254;SDS011;4167;48.162;11.542;2023-04-01T12:38:10;509.67;;;78.70;;
8254;SDS011;4167;48.162;11.542;2023-04-01T12:40:48;410.77;;;72.83;;
8254;SDS011;4167;48.162;11.542;2023-04-01T12:43:25;359.00;;;68.23;;
8254;SDS011;4167;48.162;11.542;2023-04-01T12:45:57;351.27;;;68.30;;
8254;SDS011;4167;48.162;11.542;2023-04-01T12:48:32;537.13;;;80.93;;
8254;SDS011;4167;48.162;11.542;2023-04-01T12:54:09;409.37;;;72.77;;
8254;SDS011;4167;48.162;11.542;2023-04-01T12:56:50;435.40;;;74.43;;
8254;SDS011;4167;48.162;11.542;2023-04-01T12:59:42;523.87;;;80.73;;
8254;SDS011;4167;48.162;11.542;2023-04-01T13:02:21;454.07;;;73.57;;
8254;SDS011;4167;48.162;11.542;2023-04-01T13:05:01;476.57;;;75.47;;
8254;SDS011;4167;48.162;11.542;2023-04-01T13:07:43;352.90;;;66.97;;
8254;SDS011;4167;48.162;11.542;2023-04-01T13:10:29;362.63;;;68.13;;
8254;SDS011;4167;48.162;11.542;2023-04-01T13:16:08;445.37;;;73.07;;
8254;SDS011;4167;48.162;11.542;2023-04-01T13:18:39;381.60;;;69.77;;
8254;SDS011;4167;48.162;11.542;2023-04-01T13:21:10;391.97;;;69.90;;
8254;SDS011;4167;48.162;11.542;2023-04-01T13:23:44;336.33;;;65.97;;
8254;SDS011;4167;48.162;11.542;2023-04-01T13:26:17;494.73;;;76.23;;
8254;SDS011;4167;48.162;11.542;2023-04-01T13:28:50;326.57;;;65.97;;
8254;SDS011;4167;48.162;11.542;2023-04-01T13:31:24;316.07;;;64.53;;
8254;SDS011;4167;48.162;11.542;2023-04-01T13:33:57;326.67;;;66.03;;
8254;SDS011;4167;48.162;11.542;2023-04-01T13:36:33;365.93;;;68.17;;
8254;SDS011;4167;48.162;11.542;2023-04-01T13:39:10;386.30;;;70.40;;
8254;SDS011;4167;48.162;11.542;2023-04-01T13:41:51;359.03;;;67.87;;
8254;SDS011;4167;48.162;11.542;2023-04-01T13:44:29;426.07;;;72.17;;
8254;SDS011;4167;48.162;11.542;2023-04-01T13:56:02;307.97;;;64.40;;
8254;SDS011;4167;48.162;11.542;2023-04-01T13:58:48;345.50;;;66.80;;
8254;SDS011;4167;48.162;11.542;2023-04-01T14:01:29;373.33;;;69.17;;
8254;SDS011;4167;48.162;11.542;2023-04-01T14:04:03;402.63;;;70.07;;
8254;SDS011;4167;48.162;11.542;2023-04-01T14:06:40;341.53;;;66.67;;
8254;SDS011;4167;48.162;11.542;2023-04-01T14:09:32;332.00;;;65.73;;
8254;SDS011;4167;48.162;11.542;2023-04-01T14:12:09;334.10;;;66.03;;
8254;SDS011;4167;48.162;11.542;2023-04-01T14:14:46;339.97;;;66.20;;
8254;SDS011;4167;48.162;11.542;2023-04-01T14:17:27;244.17;;;60.33;;
8254;SDS011;4167;48.162;11.542;2023-04-01T14:20:13;375.13;;;68.90;;
8254;SDS011;4167;48.162;11.542;2023-04-01T14:22:46;387.43;;;69.07;;
8254;SDS011;4167;48.162;11.542;2023-04-01T14:25:32;359.60;;;68.37;;
8254;SDS011;4167;48.162;11.542;2023-04-01T14:28:18;403.63;;;71.33;;
8254;SDS011;4167;48.162;11.542;2023-04-01T14:30:54;444.03;;;72.67;;
8254;SDS011;4167;48.162;11.542;2023-04-01T14:33:30;517.50;;;77.67;;
8254;SDS011;4167;48.162;11.542;2023-04-01T14:36:06;390.43;;;69.53;;
8254;SDS011;4167;48.162;11.542;2023-04-01T14:38:47;382.57;;;69.50;;
8254;SDS011;4167;48.162;11.542;2023-04-01T14:41:21;423.30;;;72.77;;
8254;SDS011;4167;48.162;11.542;2023-04-01T14:44:01;490.57;;;77.07;;
8254;SDS011;4167;48.162;11.542;2023-04-01T14:49:42;434.63;;;72.80;;
8254;SDS011;4167;48.162;11.542;2023-04-01T14:52:13;388.37;;;69.97;;
8254;SDS011;4167;48.162;11.542;2023-04-01T14:54:42;405.10;;;71.50;;
8254;SDS011;4167;48.162;11.542;2023-04-01T14:57:12;520.30;;;78.30;;
8254;SDS011;4167;48.162;11.542;2023-04-01T14:59:39;386.47;;;69.77;;
8254;SDS011;4167;48.162;11.542;2023-04-01T15:02:09;387.57;;;69.67;;
8254;SDS011;4167;48.162;11.542;2023-04-01T15:04:50;330.20;;;66.40;;
8254;SDS011;4167;48.162;11.542;2023-04-01T15:07:22;379.83;;;69.07;;
8254;SDS011;4167;48.162;11.542;2023-04-01T15:10:12;439.90;;;74.50;;
8254;SDS011;4167;48.162;11.542;2023-04-01T15:12:49;355.27;;;67.57;;
8254;SDS011;4167;48.162;11.542;2023-04-01T15:15:22;453.70;;;74.00;;
8254;SDS011;4167;48.162;11.542;2023-04-01T15:17:56;397.03;;;70.07;;
8254;SDS011;4167;48.162;11.542;2023-04-01T15:20:42;390.90;;;69.57;;
8254;SDS011;4167;48.162;11.542;2023-04-01T15:23:25;460.83;;;74.67;;
8254;SDS011;4167;48.162;11.542;2023-04-01T15:26:05;440.07;;;73.77;;
8254;SDS011;4167;48.162;11.542;2023-04-01T15:28:47;399.73;;;71.70;;
8254;SDS011;4167;48.162;11.542;2023-04-01T15:31:19;426.67;;;72.73;;
8254;SDS011;4167;48.162;11.542;2023-04-01T15:33:51;497.27;;;76.77;;
8254;SDS011;4167;48.162;11.542;2023-04-01T15:36:30;406.53;;;71.43;;
8254;SDS011;4167;48.162;11.542;2023-04-01T15:39:03;437.90;;;72.87;;
8254;SDS011;4167;48.162;11.542;2023-04-01T15:41:39;565.70;;;80.93;;
8254;SDS011;4167;48.162;11.542;2023-04-01T15:44:26;506.73;;;78.00;;
8254;SDS011;4167;48.162;11.542;2023-04-01T15:47:18;527.60;;;78.20;;
8254;SDS011;4167;48.162;11.542;2023-04-01T15:49:57;440.30;;;71.60;;
8254;SDS011;4167;48.162;11.542;2023-04-01T15:52:36;407.20;;;71.00;;
8254;SDS011;4167;48.162;11.542;2023-04-01T15:55:16;442.73;;;72.43;;
8254;SDS011;4167;48.162;11.542;2023-04-01T15:57:50;516.00;;;77.20;;
8254;SDS011;4167;48.162;11.542;2023-04-01T16:00:23;439.93;;;71.90;;
8254;SDS011;4167;48.162;11.542;2023-04-01T16:02:54;429.90;;;72.03;;
8254;SDS011;4167;48.162;11.542;2023-04-01T16:05:37;405.20;;;69.83;;
8254;SDS011;4167;48.162;11.542;2023-04-01T16:08:23;506.90;;;76.83;;
8254;SDS011;4167;48.162;11.542;2023-04-01T16:11:06;442.37;;;72.80;;
8254;SDS011;4167;48.162;11.542;2023-04-01T16:13:42;387.20;;;68.80;;
8254;SDS011;4167;48.162;11.542;2023-04-01T16:16:18;419.73;;;70.93;;
8254;SDS011;4167;48.162;11.542;2023-04-01T16:18:54;508.90;;;76.73;;
8254;SDS011;4167;48.162;11.542;2023-04-01T16:21:36;520.43;;;77.20;;
8254;SDS011;4167;48.162;11.542;2023-04-01T16:24:09;465.10;;;73.13;;
8254;SDS011;4167;48.162;11.542;2023-04-01T16:26:43;348.40;;;66.70;;
8254;SDS011;4167;48.162;11.542;2023-04-01T16:29:12;481.47;;;75.67;;
8254;SDS011;4167;48.162;11.542;2023-04-01T16:31:46;430.60;;;71.67;;